Terminal Aerodrome Forecast
Issued by NWS

Home | Current Version | Previous Version | Text Only | Print | Product List | Glossary On
Versions: 1 2 3 4 5 6 7 8 9 10 11 12 13 14 15 16 17 18
686
FTUS46 KPDT 261803 AAA
TAFALW
TAF AMD
KALW 261803Z 2618/2718 15008KT 3SM -SNRA BR BKN015 OVC035
      TEMPO 2618/2622 6SM BR SCT015 OVC035
     FM262200 20007KT 6SM -SNRA SCT015 OVC035
     FM271200 20006KT 5SM -SN BR OVC030=

USA.gov is the U.S. government's official web portal to all federal, state and local government web resources and services.